Salamis Filoxenia — 5BUY2 — position and weather

sailwx.info

Track history (hours):
 
Tides and Currents Weather Stations Pressure Air Temp Water Temp Dewpoint Dewpoint Depression Visibility Wind Speed Wind Dir Waves Ship Positions

Salamis Filoxenia

Last reported at 2014-Oct-01 17:06 UTC. Time now 2014-Oct-02 10:40 UTC.
Position N 34°17' E 033°25'.

Length 157 m; draft 6.2 m.

Type: Passenger vessel. MMSI: 209167000.

Date/timePositionNaut miles runAvg speedWind from/ knotsBaromVisibWave heightAir tempDewpointWater temp
2014-Oct-01 17:06N 34°17' E 033°25'713.1
2014-Oct-01 16:33N 34°22' E 033°20'1313.3
2014-Oct-01 15:33N 34°32' E 033°09'10 9.7
2014-Oct-01 14:33N 34°39' E 033°01'0 0.0
2014-Oct-01 13:33N 34°39' E 033°01'0 0.0
2014-Oct-01 12:33N 34°39' E 033°01'0 0.0
2014-Oct-01 11:33N 34°39' E 033°01'0 0.0
2014-Oct-01 10:33N 34°39' E 033°01'1 0.7
2014-Oct-01 09:33N 34°39' E 033°02'9 8.6
2014-Oct-01 08:34N 34°32' E 032°57'1414.2
2014-Oct-01 07:33N 34°36' E 032°40'32710.9
2014-Sep-30 01:32N 37°20' E 026°51'2014.8
2014-Sep-30 00:12N 37°37' E 026°38'  
2014-Sep-27 12:33N 34°39' E 032°32'1514.9
2014-Sep-27 11:33N 34°34' E 032°49'1312.8
2014-Sep-27 10:33N 34°33' E 033°05'7 6.8
2014-Sep-27 09:33N 34°39' E 033°01'0 0.0
2014-Sep-27 08:33N 34°39' E 033°01'0 0.0
2014-Sep-27 07:33N 34°39' E 033°01'0 0.0
2014-Sep-27 06:33N 34°39' E 033°01'0 0.0
2014-Sep-27 05:33N 34°39' E 033°01'0 0.0
2014-Sep-27 04:33N 34°39' E 033°01'0 0.0
2014-Sep-27 03:33N 34°39' E 033°01'0 0.0
2014-Sep-27 02:33N 34°39' E 033°01'0 0.0
2014-Sep-27 01:33N 34°39' E 033°01'0 0.0
2014-Sep-27 00:33N 34°39' E 033°01'0 0.0
2014-Sep-26 23:33N 34°39' E 033°01'0 0.0
2014-Sep-26 22:33N 34°39' E 033°01'0 0.0
2014-Sep-26 21:33N 34°39' E 033°01'0 0.0
2014-Sep-26 20:33N 34°39' E 033°01'0 0.0
2014-Sep-26 19:33N 34°39' E 033°01'0 0.0
2014-Sep-26 18:33N 34°39' E 033°01'0 0.0
2014-Sep-26 17:33N 34°39' E 033°01'0 0.0
2014-Sep-26 16:33N 34°39' E 033°01'0 0.0
2014-Sep-26 15:33N 34°39' E 033°01'0 0.0
2014-Sep-26 14:33N 34°39' E 033°01'0 0.0
2014-Sep-26 13:33N 34°39' E 033°01'0 0.0
2014-Sep-26 12:33N 34°39' E 033°01'0 0.0
2014-Sep-26 11:33N 34°39' E 033°01'0 0.0
2014-Sep-26 10:33N 34°39' E 033°01'0 0.0
2014-Sep-26 09:33N 34°39' E 033°01'0 0.0
2014-Sep-26 08:33N 34°39' E 033°01'0 0.0
2014-Sep-26 07:33N 34°39' E 033°01'0 0.0
2014-Sep-26 06:33N 34°39' E 033°01'0 0.0
2014-Sep-26 05:33N 34°39' E 033°01'0 0.0
2014-Sep-26 04:33N 34°39' E 033°01'0 0.0
2014-Sep-26 03:33N 34°39' E 033°01'0 0.0
2014-Sep-26 02:33N 34°39' E 033°01'0 0.0
2014-Sep-26 01:33N 34°39' E 033°01'0 0.0
2014-Sep-26 00:33N 34°39' E 033°01'0 0.0
2014-Sep-25 23:33N 34°39' E 033°01'0 0.0
2014-Sep-25 22:33N 34°39' E 033°01'0 0.0
2014-Sep-25 21:33N 34°39' E 033°01'0 0.0
2014-Sep-25 20:33N 34°39' E 033°01'0 0.0
2014-Sep-25 19:33N 34°39' E 033°01'0 0.0
2014-Sep-25 18:33N 34°39' E 033°01'0 0.5
2014-Sep-25 17:33N 34°39' E 033°01'8 7.5
2014-Sep-25 16:33N 34°32' E 032°59'1615.6
2014-Sep-25 15:33N 34°30' E 032°40'335 8.5
2014-Sep-24 00:12N 36°51' E 026°27'913.6
2014-Sep-23 23:33N 36°56' E 026°18'1313.4
2014-Sep-23 22:33N 37°03' E 026°04'1313.1
2014-Sep-23 21:33N 37°10' E 025°50'1312.9
2014-Sep-23 20:33N 37°14' E 025°34'1313.2
2014-Sep-23 19:33N 37°18' E 025°19'1313.4
2014-Sep-23 18:33N 37°24' E 025°04'6 5.9
2014-Sep-23 17:32N 37°26' E 024°57'0 0.0
2014-Sep-23 16:30N 37°26' E 024°57'0 0.0
2014-Sep-23 15:33N 37°26' E 024°57'0 0.0
2014-Sep-23 14:33N 37°26' E 024°57'0 0.0
2014-Sep-23 13:33N 37°26' E 024°57'0 0.0
2014-Sep-23 12:32N 37°26' E 024°57'0 0.0
2014-Sep-23 11:33N 37°26' E 024°57'0 0.0
2014-Sep-23 10:31N 37°26' E 024°57'0 0.0
2014-Sep-23 09:32N 37°26' E 024°57'0 0.0
2014-Sep-23 08:33N 37°26' E 024°57'0 0.0
2014-Sep-23 07:33N 37°26' E 024°57'0 0.0
2014-Sep-23 06:33N 37°26' E 024°57'0 0.0
2014-Sep-23 05:33N 37°26' E 024°57'0 0.0
2014-Sep-23 04:33N 37°26' E 024°57'0 0.4
2014-Sep-23 03:32N 37°26' E 024°57'9 9.6
2014-Sep-23 02:33N 37°29' E 025°08'1010.4
2014-Sep-23 01:33N 37°32' E 025°21'1010.4
2014-Sep-23 00:33N 37°31' E 025°34'1110.5
2014-Sep-22 23:33N 37°28' E 025°47'1111.4
2014-Sep-22 22:33N 37°29' E 026°01'1211.6
2014-Sep-22 21:33N 37°32' E 026°15'6 5.6
2014-Sep-22 20:32N 37°37' E 026°18'0 0.0
2014-Sep-22 19:33N 37°37' E 026°18'0 0.0
2014-Sep-22 18:33N 37°37' E 026°18'0 0.0
2014-Sep-22 17:33N 37°37' E 026°18'0 0.0
2014-Sep-22 16:33N 37°37' E 026°18'0 0.0
2014-Sep-22 15:33N 37°37' E 026°18'0 0.0
2014-Sep-22 14:33N 37°37' E 026°18'0 0.0
2014-Sep-22 13:33N 37°37' E 026°18'0 0.2
2014-Sep-22 12:33N 37°37' E 026°18'21213.2
2014-Sep-21 20:33N 40°50' E 024°25'6 6.4
2014-Sep-21 19:33N 40°56' E 024°25'0 0.0
2014-Sep-21 18:33N 40°56' E 024°25'0 0.0
2014-Sep-21 17:33N 40°56' E 024°25'  
Track history (hours):
 
Tides and Currents Weather Stations Pressure Air Temp Water Temp Dewpoint Dewpoint Depression Visibility Wind Speed Wind Dir Waves Ship Positions

Salamis Filoxenia

Last reported at 2014-Oct-01 17:06 UTC. Time now 2014-Oct-02 10:40 UTC.
Position N 34°17' E 033°25'.

Length 157 m; draft 6.2 m.

Type: Passenger vessel. MMSI: 209167000.

Date/timePositionNaut miles runAvg speedWind from/ knotsBaromVisibWave heightAir tempDewpointWater temp
2014-Oct-01 17:06N 34°17' E 033°25'713.1
2014-Oct-01 16:33N 34°22' E 033°20'1313.3
2014-Oct-01 15:33N 34°32' E 033°09'10 9.7
2014-Oct-01 14:33N 34°39' E 033°01'0 0.0
2014-Oct-01 13:33N 34°39' E 033°01'0 0.0
2014-Oct-01 12:33N 34°39' E 033°01'0 0.0
2014-Oct-01 11:33N 34°39' E 033°01'0 0.0
2014-Oct-01 10:33N 34°39' E 033°01'1 0.7
2014-Oct-01 09:33N 34°39' E 033°02'9 8.6
2014-Oct-01 08:34N 34°32' E 032°57'1414.2
2014-Oct-01 07:33N 34°36' E 032°40'32710.9
2014-Sep-30 01:32N 37°20' E 026°51'2014.8
2014-Sep-30 00:12N 37°37' E 026°38'  
2014-Sep-27 12:33N 34°39' E 032°32'1514.9
2014-Sep-27 11:33N 34°34' E 032°49'1312.8
2014-Sep-27 10:33N 34°33' E 033°05'7 6.8
2014-Sep-27 09:33N 34°39' E 033°01'0 0.0
2014-Sep-27 08:33N 34°39' E 033°01'0 0.0
2014-Sep-27 07:33N 34°39' E 033°01'0 0.0
2014-Sep-27 06:33N 34°39' E 033°01'0 0.0
2014-Sep-27 05:33N 34°39' E 033°01'0 0.0
2014-Sep-27 04:33N 34°39' E 033°01'0 0.0
2014-Sep-27 03:33N 34°39' E 033°01'0 0.0
2014-Sep-27 02:33N 34°39' E 033°01'0 0.0
2014-Sep-27 01:33N 34°39' E 033°01'0 0.0
2014-Sep-27 00:33N 34°39' E 033°01'0 0.0
2014-Sep-26 23:33N 34°39' E 033°01'0 0.0
2014-Sep-26 22:33N 34°39' E 033°01'0 0.0
2014-Sep-26 21:33N 34°39' E 033°01'0 0.0
2014-Sep-26 20:33N 34°39' E 033°01'0 0.0
2014-Sep-26 19:33N 34°39' E 033°01'0 0.0
2014-Sep-26 18:33N 34°39' E 033°01'0 0.0
2014-Sep-26 17:33N 34°39' E 033°01'0 0.0
2014-Sep-26 16:33N 34°39' E 033°01'0 0.0
2014-Sep-26 15:33N 34°39' E 033°01'0 0.0
2014-Sep-26 14:33N 34°39' E 033°01'0 0.0
2014-Sep-26 13:33N 34°39' E 033°01'0 0.0
2014-Sep-26 12:33N 34°39' E 033°01'0 0.0
2014-Sep-26 11:33N 34°39' E 033°01'0 0.0
2014-Sep-26 10:33N 34°39' E 033°01'0 0.0
2014-Sep-26 09:33N 34°39' E 033°01'0 0.0
2014-Sep-26 08:33N 34°39' E 033°01'0 0.0
2014-Sep-26 07:33N 34°39' E 033°01'0 0.0
2014-Sep-26 06:33N 34°39' E 033°01'0 0.0
2014-Sep-26 05:33N 34°39' E 033°01'0 0.0
2014-Sep-26 04:33N 34°39' E 033°01'0 0.0
2014-Sep-26 03:33N 34°39' E 033°01'0 0.0
2014-Sep-26 02:33N 34°39' E 033°01'0 0.0
2014-Sep-26 01:33N 34°39' E 033°01'0 0.0
2014-Sep-26 00:33N 34°39' E 033°01'0 0.0
2014-Sep-25 23:33N 34°39' E 033°01'0 0.0
2014-Sep-25 22:33N 34°39' E 033°01'0 0.0
2014-Sep-25 21:33N 34°39' E 033°01'0 0.0
2014-Sep-25 20:33N 34°39' E 033°01'0 0.0
2014-Sep-25 19:33N 34°39' E 033°01'0 0.0
2014-Sep-25 18:33N 34°39' E 033°01'0 0.5
2014-Sep-25 17:33N 34°39' E 033°01'8 7.5
2014-Sep-25 16:33N 34°32' E 032°59'1615.6
2014-Sep-25 15:33N 34°30' E 032°40'335 8.5
2014-Sep-24 00:12N 36°51' E 026°27'913.6
2014-Sep-23 23:33N 36°56' E 026°18'1313.4
2014-Sep-23 22:33N 37°03' E 026°04'1313.1
2014-Sep-23 21:33N 37°10' E 025°50'1312.9
2014-Sep-23 20:33N 37°14' E 025°34'1313.2
2014-Sep-23 19:33N 37°18' E 025°19'1313.4
2014-Sep-23 18:33N 37°24' E 025°04'6 5.9
2014-Sep-23 17:32N 37°26' E 024°57'0 0.0
2014-Sep-23 16:30N 37°26' E 024°57'0 0.0
2014-Sep-23 15:33N 37°26' E 024°57'0 0.0
2014-Sep-23 14:33N 37°26' E 024°57'0 0.0
2014-Sep-23 13:33N 37°26' E 024°57'0 0.0
2014-Sep-23 12:32N 37°26' E 024°57'0 0.0
2014-Sep-23 11:33N 37°26' E 024°57'0 0.0
2014-Sep-23 10:31N 37°26' E 024°57'0 0.0
2014-Sep-23 09:32N 37°26' E 024°57'0 0.0
2014-Sep-23 08:33N 37°26' E 024°57'0 0.0
2014-Sep-23 07:33N 37°26' E 024°57'0 0.0
2014-Sep-23 06:33N 37°26' E 024°57'0 0.0
2014-Sep-23 05:33N 37°26' E 024°57'0 0.0
2014-Sep-23 04:33N 37°26' E 024°57'0 0.4
2014-Sep-23 03:32N 37°26' E 024°57'9 9.6
2014-Sep-23 02:33N 37°29' E 025°08'1010.4
2014-Sep-23 01:33N 37°32' E 025°21'1010.4
2014-Sep-23 00:33N 37°31' E 025°34'1110.5
2014-Sep-22 23:33N 37°28' E 025°47'1111.4
2014-Sep-22 22:33N 37°29' E 026°01'1211.6
2014-Sep-22 21:33N 37°32' E 026°15'6 5.6
2014-Sep-22 20:32N 37°37' E 026°18'0 0.0
2014-Sep-22 19:33N 37°37' E 026°18'0 0.0
2014-Sep-22 18:33N 37°37' E 026°18'0 0.0
2014-Sep-22 17:33N 37°37' E 026°18'0 0.0
2014-Sep-22 16:33N 37°37' E 026°18'0 0.0
2014-Sep-22 15:33N 37°37' E 026°18'0 0.0
2014-Sep-22 14:33N 37°37' E 026°18'0 0.0
2014-Sep-22 13:33N 37°37' E 026°18'0 0.2
2014-Sep-22 12:33N 37°37' E 026°18'21213.2
2014-Sep-21 20:33N 40°50' E 024°25'6 6.4
2014-Sep-21 19:33N 40°56' E 024°25'0 0.0
2014-Sep-21 18:33N 40°56' E 024°25'0 0.0
2014-Sep-21 17:33N 40°56' E 024°25'  

Dump ship's entire track history